sensor_id;sensor_type;location;lat;lon;timestamp;P1;durP1;ratioP1;P2;durP2;ratioP2
42030;SDS011;27709;52.036;5.906;2022-07-10T00:03:14;4.03;;;0.80;;
42030;SDS011;27709;52.036;5.906;2022-07-10T00:05:40;2.75;;;0.60;;
42030;SDS011;27709;52.036;5.906;2022-07-10T00:08:05;4.25;;;0.75;;
42030;SDS011;27709;52.036;5.906;2022-07-10T00:10:31;4.25;;;0.60;;
42030;SDS011;27709;52.036;5.906;2022-07-10T00:12:59;3.75;;;0.70;;
42030;SDS011;27709;52.036;5.906;2022-07-10T00:15:24;4.60;;;0.70;;
42030;SDS011;27709;52.036;5.906;2022-07-10T00:17:50;3.00;;;0.70;;
42030;SDS011;27709;52.036;5.906;2022-07-10T00:20:16;3.55;;;0.63;;
42030;SDS011;27709;52.036;5.906;2022-07-10T00:22:42;2.70;;;0.65;;
42030;SDS011;27709;52.036;5.906;2022-07-10T00:25:11;5.68;;;0.77;;
42030;SDS011;27709;52.036;5.906;2022-07-10T00:27:40;2.78;;;0.57;;
42030;SDS011;27709;52.036;5.906;2022-07-10T00:30:26;2.13;;;0.65;;
42030;SDS011;27709;52.036;5.906;2022-07-10T00:32:52;3.45;;;0.73;;
42030;SDS011;27709;52.036;5.906;2022-07-10T00:35:20;3.25;;;0.60;;
42030;SDS011;27709;52.036;5.906;2022-07-10T00:37:45;5.35;;;0.70;;
42030;SDS011;27709;52.036;5.906;2022-07-10T00:40:11;2.80;;;0.60;;
42030;SDS011;27709;52.036;5.906;2022-07-10T00:42:37;3.85;;;0.70;;
42030;SDS011;27709;52.036;5.906;2022-07-10T00:45:03;3.88;;;0.60;;
42030;SDS011;27709;52.036;5.906;2022-07-10T00:47:29;4.05;;;0.60;;
42030;SDS011;27709;52.036;5.906;2022-07-10T00:49:54;4.68;;;0.70;;
42030;SDS011;27709;52.036;5.906;2022-07-10T00:52:21;3.78;;;0.60;;
42030;SDS011;27709;52.036;5.906;2022-07-10T00:54:51;4.72;;;0.90;;
42030;SDS011;27709;52.036;5.906;2022-07-10T00:57:17;5.40;;;0.77;;
42030;SDS011;27709;52.036;5.906;2022-07-10T00:59:45;5.35;;;0.68;;
42030;SDS011;27709;52.036;5.906;2022-07-10T01:02:13;3.85;;;0.80;;
42030;SDS011;27709;52.036;5.906;2022-07-10T01:04:43;4.43;;;0.70;;
42030;SDS011;27709;52.036;5.906;2022-07-10T01:07:29;3.13;;;0.70;;
42030;SDS011;27709;52.036;5.906;2022-07-10T01:10:38;4.63;;;0.80;;
42030;SDS011;27709;52.036;5.906;2022-07-10T01:13:16;4.47;;;0.80;;
42030;SDS011;27709;52.036;5.906;2022-07-10T01:15:46;2.63;;;0.60;;
42030;SDS011;27709;52.036;5.906;2022-07-10T01:31:24;3.55;;;0.65;;
42030;SDS011;27709;52.036;5.906;2022-07-10T01:33:51;4.90;;;0.80;;
42030;SDS011;27709;52.036;5.906;2022-07-10T01:36:16;5.78;;;0.82;;
42030;SDS011;27709;52.036;5.906;2022-07-10T01:38:46;5.20;;;0.70;;
42030;SDS011;27709;52.036;5.906;2022-07-10T01:41:12;4.28;;;0.82;;
42030;SDS011;27709;52.036;5.906;2022-07-10T01:43:38;3.90;;;0.90;;
42030;SDS011;27709;52.036;5.906;2022-07-10T01:46:08;4.70;;;0.80;;
42030;SDS011;27709;52.036;5.906;2022-07-10T01:48:36;3.90;;;0.68;;
42030;SDS011;27709;52.036;5.906;2022-07-10T01:51:05;3.22;;;0.70;;
42030;SDS011;27709;52.036;5.906;2022-07-10T01:53:31;4.40;;;0.90;;
42030;SDS011;27709;52.036;5.906;2022-07-10T01:55:58;3.03;;;0.80;;
42030;SDS011;27709;52.036;5.906;2022-07-10T01:58:25;4.40;;;0.90;;
42030;SDS011;27709;52.036;5.906;2022-07-10T02:00:51;2.72;;;0.80;;
42030;SDS011;27709;52.036;5.906;2022-07-10T02:03:16;2.53;;;0.68;;
42030;SDS011;27709;52.036;5.906;2022-07-10T02:06:00;4.07;;;0.70;;
42030;SDS011;27709;52.036;5.906;2022-07-10T02:08:26;5.78;;;0.90;;
42030;SDS011;27709;52.036;5.906;2022-07-10T02:10:51;2.55;;;0.70;;
42030;SDS011;27709;52.036;5.906;2022-07-10T02:13:17;3.53;;;0.70;;
42030;SDS011;27709;52.036;5.906;2022-07-10T02:15:45;3.58;;;0.70;;
42030;SDS011;27709;52.036;5.906;2022-07-10T02:18:12;5.15;;;0.88;;
42030;SDS011;27709;52.036;5.906;2022-07-10T02:20:38;2.65;;;0.60;;
42030;SDS011;27709;52.036;5.906;2022-07-10T02:23:03;4.43;;;0.90;;
42030;SDS011;27709;52.036;5.906;2022-07-10T02:25:29;4.47;;;0.70;;
42030;SDS011;27709;52.036;5.906;2022-07-10T02:27:54;4.70;;;0.90;;
42030;SDS011;27709;52.036;5.906;2022-07-10T02:30:20;4.55;;;0.90;;
42030;SDS011;27709;52.036;5.906;2022-07-10T02:32:46;5.32;;;0.80;;
42030;SDS011;27709;52.036;5.906;2022-07-10T02:35:11;4.25;;;0.70;;
42030;SDS011;27709;52.036;5.906;2022-07-10T02:37:37;4.80;;;0.80;;
42030;SDS011;27709;52.036;5.906;2022-07-10T02:40:02;3.45;;;0.70;;
42030;SDS011;27709;52.036;5.906;2022-07-10T02:42:28;3.70;;;0.65;;
42030;SDS011;27709;52.036;5.906;2022-07-10T02:44:54;5.80;;;0.80;;
42030;SDS011;27709;52.036;5.906;2022-07-10T02:47:19;3.35;;;0.95;;
42030;SDS011;27709;52.036;5.906;2022-07-10T02:49:45;3.50;;;0.75;;
42030;SDS011;27709;52.036;5.906;2022-07-10T02:52:12;5.53;;;0.70;;
42030;SDS011;27709;52.036;5.906;2022-07-10T02:54:37;3.47;;;0.70;;
42030;SDS011;27709;52.036;5.906;2022-07-10T02:57:12;4.15;;;0.80;;
42030;SDS011;27709;52.036;5.906;2022-07-10T02:59:43;4.45;;;0.70;;
42030;SDS011;27709;52.036;5.906;2022-07-10T03:02:09;3.28;;;0.68;;
42030;SDS011;27709;52.036;5.906;2022-07-10T03:04:34;3.28;;;0.52;;
42030;SDS011;27709;52.036;5.906;2022-07-10T03:07:01;3.30;;;0.60;;
42030;SDS011;27709;52.036;5.906;2022-07-10T03:09:32;4.28;;;1.02;;
42030;SDS011;27709;52.036;5.906;2022-07-10T03:12:01;3.53;;;0.70;;
42030;SDS011;27709;52.036;5.906;2022-07-10T03:14:28;3.92;;;0.75;;
42030;SDS011;27709;52.036;5.906;2022-07-10T03:16:56;5.03;;;1.00;;
42030;SDS011;27709;52.036;5.906;2022-07-10T03:19:22;3.10;;;0.80;;
42030;SDS011;27709;52.036;5.906;2022-07-10T03:21:49;3.13;;;0.80;;
42030;SDS011;27709;52.036;5.906;2022-07-10T03:24:15;2.80;;;0.90;;
42030;SDS011;27709;52.036;5.906;2022-07-10T03:26:41;4.45;;;0.70;;
42030;SDS011;27709;52.036;5.906;2022-07-10T03:29:08;4.22;;;0.90;;
42030;SDS011;27709;52.036;5.906;2022-07-10T03:31:34;6.30;;;1.00;;
42030;SDS011;27709;52.036;5.906;2022-07-10T03:34:29;4.85;;;0.80;;
42030;SDS011;27709;52.036;5.906;2022-07-10T03:36:59;4.55;;;0.80;;
42030;SDS011;27709;52.036;5.906;2022-07-10T03:39:47;3.78;;;0.90;;
42030;SDS011;27709;52.036;5.906;2022-07-10T03:43:04;4.88;;;0.85;;
42030;SDS011;27709;52.036;5.906;2022-07-10T03:45:57;2.88;;;0.77;;
42030;SDS011;27709;52.036;5.906;2022-07-10T03:48:25;3.88;;;0.63;;
42030;SDS011;27709;52.036;5.906;2022-07-10T03:51:10;4.65;;;0.90;;
42030;SDS011;27709;52.036;5.906;2022-07-10T03:53:36;4.15;;;0.90;;
42030;SDS011;27709;52.036;5.906;2022-07-10T03:56:03;4.00;;;1.00;;
42030;SDS011;27709;52.036;5.906;2022-07-10T03:58:29;3.08;;;0.93;;
42030;SDS011;27709;52.036;5.906;2022-07-10T04:00:55;4.55;;;0.90;;
42030;SDS011;27709;52.036;5.906;2022-07-10T04:06:00;4.30;;;0.98;;
42030;SDS011;27709;52.036;5.906;2022-07-10T04:08:29;3.42;;;0.90;;
42030;SDS011;27709;52.036;5.906;2022-07-10T04:10:55;3.30;;;0.80;;
42030;SDS011;27709;52.036;5.906;2022-07-10T04:13:21;3.50;;;0.90;;
42030;SDS011;27709;52.036;5.906;2022-07-10T04:15:47;2.17;;;0.60;;
42030;SDS011;27709;52.036;5.906;2022-07-10T04:18:12;2.20;;;0.80;;
42030;SDS011;27709;52.036;5.906;2022-07-10T04:20:38;4.70;;;0.85;;
42030;SDS011;27709;52.036;5.906;2022-07-10T04:23:06;3.85;;;1.00;;
42030;SDS011;27709;52.036;5.906;2022-07-10T04:25:32;5.07;;;0.90;;
42030;SDS011;27709;52.036;5.906;2022-07-10T04:28:00;5.03;;;0.80;;
42030;SDS011;27709;52.036;5.906;2022-07-10T04:30:26;3.67;;;0.77;;
42030;SDS011;27709;52.036;5.906;2022-07-10T04:32:52;4.53;;;0.77;;
42030;SDS011;27709;52.036;5.906;2022-07-10T04:35:17;3.88;;;0.80;;
42030;SDS011;27709;52.036;5.906;2022-07-10T04:37:43;3.90;;;0.85;;
42030;SDS011;27709;52.036;5.906;2022-07-10T04:40:09;4.15;;;0.77;;
42030;SDS011;27709;52.036;5.906;2022-07-10T04:42:35;4.90;;;0.88;;
42030;SDS011;27709;52.036;5.906;2022-07-10T04:45:01;4.03;;;0.80;;
42030;SDS011;27709;52.036;5.906;2022-07-10T04:47:27;3.35;;;0.80;;
42030;SDS011;27709;52.036;5.906;2022-07-10T04:49:53;3.50;;;0.70;;
42030;SDS011;27709;52.036;5.906;2022-07-10T04:52:19;4.93;;;0.95;;
42030;SDS011;27709;52.036;5.906;2022-07-10T04:54:45;5.18;;;0.90;;
42030;SDS011;27709;52.036;5.906;2022-07-10T04:57:11;3.88;;;0.80;;
42030;SDS011;27709;52.036;5.906;2022-07-10T04:59:37;6.22;;;1.00;;
42030;SDS011;27709;52.036;5.906;2022-07-10T05:02:03;3.53;;;0.70;;
42030;SDS011;27709;52.036;5.906;2022-07-10T05:04:29;3.60;;;0.85;;
42030;SDS011;27709;52.036;5.906;2022-07-10T05:06:54;4.78;;;1.00;;
42030;SDS011;27709;52.036;5.906;2022-07-10T05:09:20;1.95;;;0.55;;
42030;SDS011;27709;52.036;5.906;2022-07-10T05:11:46;3.50;;;0.77;;
42030;SDS011;27709;52.036;5.906;2022-07-10T05:14:12;4.55;;;0.70;;
42030;SDS011;27709;52.036;5.906;2022-07-10T05:16:37;4.80;;;1.00;;
42030;SDS011;27709;52.036;5.906;2022-07-10T05:19:03;7.35;;;0.80;;
42030;SDS011;27709;52.036;5.906;2022-07-10T05:21:29;5.47;;;0.70;;
42030;SDS011;27709;52.036;5.906;2022-07-10T05:23:54;6.25;;;0.93;;
42030;SDS011;27709;52.036;5.906;2022-07-10T05:26:20;5.30;;;0.77;;
42030;SDS011;27709;52.036;5.906;2022-07-10T05:28:45;5.20;;;0.75;;
42030;SDS011;27709;52.036;5.906;2022-07-10T05:31:11;3.47;;;0.90;;
42030;SDS011;27709;52.036;5.906;2022-07-10T05:33:36;5.18;;;0.77;;
42030;SDS011;27709;52.036;5.906;2022-07-10T05:36:05;4.85;;;0.70;;
42030;SDS011;27709;52.036;5.906;2022-07-10T05:38:32;3.92;;;0.88;;
42030;SDS011;27709;52.036;5.906;2022-07-10T05:40:57;5.10;;;0.90;;
42030;SDS011;27709;52.036;5.906;2022-07-10T05:43:23;4.65;;;0.85;;
42030;SDS011;27709;52.036;5.906;2022-07-10T05:45:51;4.93;;;0.80;;
42030;SDS011;27709;52.036;5.906;2022-07-10T05:48:17;8.65;;;0.70;;
42030;SDS011;27709;52.036;5.906;2022-07-10T05:50:44;6.50;;;1.08;;
42030;SDS011;27709;52.036;5.906;2022-07-10T05:53:10;5.97;;;0.90;;
42030;SDS011;27709;52.036;5.906;2022-07-10T05:55:35;3.75;;;0.75;;
42030;SDS011;27709;52.036;5.906;2022-07-10T05:58:01;4.78;;;0.75;;
42030;SDS011;27709;52.036;5.906;2022-07-10T06:00:26;5.75;;;0.90;;
42030;SDS011;27709;52.036;5.906;2022-07-10T06:02:52;5.38;;;0.80;;
42030;SDS011;27709;52.036;5.906;2022-07-10T06:05:17;3.88;;;0.80;;
42030;SDS011;27709;52.036;5.906;2022-07-10T06:07:43;4.25;;;0.80;;
42030;SDS011;27709;52.036;5.906;2022-07-10T06:10:09;2.97;;;0.60;;
42030;SDS011;27709;52.036;5.906;2022-07-10T06:12:34;5.60;;;1.08;;
42030;SDS011;27709;52.036;5.906;2022-07-10T06:15:02;5.40;;;0.95;;
42030;SDS011;27709;52.036;5.906;2022-07-10T06:17:28;5.10;;;0.90;;
42030;SDS011;27709;52.036;5.906;2022-07-10T06:19:53;5.15;;;1.08;;
42030;SDS011;27709;52.036;5.906;2022-07-10T06:22:19;6.85;;;1.20;;
42030;SDS011;27709;52.036;5.906;2022-07-10T06:25:00;6.38;;;1.02;;
42030;SDS011;27709;52.036;5.906;2022-07-10T06:27:28;4.55;;;1.00;;
42030;SDS011;27709;52.036;5.906;2022-07-10T06:29:54;3.28;;;0.88;;
42030;SDS011;27709;52.036;5.906;2022-07-10T06:32:20;7.45;;;1.05;;
42030;SDS011;27709;52.036;5.906;2022-07-10T06:34:46;5.25;;;1.00;;
42030;SDS011;27709;52.036;5.906;2022-07-10T06:37:11;6.90;;;1.30;;
42030;SDS011;27709;52.036;5.906;2022-07-10T06:39:37;6.07;;;1.38;;
42030;SDS011;27709;52.036;5.906;2022-07-10T06:42:03;9.05;;;1.40;;
42030;SDS011;27709;52.036;5.906;2022-07-10T06:44:29;3.78;;;0.88;;
42030;SDS011;27709;52.036;5.906;2022-07-10T06:46:56;7.03;;;1.23;;
42030;SDS011;27709;52.036;5.906;2022-07-10T06:49:41;7.20;;;1.35;;
42030;SDS011;27709;52.036;5.906;2022-07-10T06:52:07;6.93;;;1.30;;
42030;SDS011;27709;52.036;5.906;2022-07-10T06:54:33;5.50;;;1.10;;
42030;SDS011;27709;52.036;5.906;2022-07-10T06:56:59;5.50;;;1.10;;
42030;SDS011;27709;52.036;5.906;2022-07-10T06:59:24;5.85;;;1.20;;
42030;SDS011;27709;52.036;5.906;2022-07-10T07:01:50;4.60;;;1.05;;
42030;SDS011;27709;52.036;5.906;2022-07-10T07:04:16;5.68;;;1.10;;
42030;SDS011;27709;52.036;5.906;2022-07-10T07:06:41;6.82;;;1.08;;
42030;SDS011;27709;52.036;5.906;2022-07-10T07:09:07;3.53;;;0.82;;
42030;SDS011;27709;52.036;5.906;2022-07-10T07:11:32;4.80;;;1.17;;
42030;SDS011;27709;52.036;5.906;2022-07-10T07:13:58;5.28;;;1.20;;
42030;SDS011;27709;52.036;5.906;2022-07-10T07:16:23;8.40;;;1.30;;
42030;SDS011;27709;52.036;5.906;2022-07-10T07:19:03;6.78;;;1.48;;
42030;SDS011;27709;52.036;5.906;2022-07-10T07:21:29;6.35;;;1.38;;
42030;SDS011;27709;52.036;5.906;2022-07-10T07:24:14;3.83;;;1.10;;
42030;SDS011;27709;52.036;5.906;2022-07-10T07:26:40;6.15;;;1.20;;
42030;SDS011;27709;52.036;5.906;2022-07-10T07:29:05;6.30;;;1.30;;
42030;SDS011;27709;52.036;5.906;2022-07-10T07:31:31;4.85;;;1.20;;
42030;SDS011;27709;52.036;5.906;2022-07-10T07:33:57;4.97;;;1.42;;
42030;SDS011;27709;52.036;5.906;2022-07-10T07:36:23;5.03;;;1.10;;
42030;SDS011;27709;52.036;5.906;2022-07-10T07:38:48;3.72;;;1.08;;
42030;SDS011;27709;52.036;5.906;2022-07-10T07:41:14;6.97;;;1.20;;
42030;SDS011;27709;52.036;5.906;2022-07-10T07:43:40;5.28;;;1.15;;
42030;SDS011;27709;52.036;5.906;2022-07-10T07:46:06;5.93;;;1.42;;
42030;SDS011;27709;52.036;5.906;2022-07-10T07:48:31;4.80;;;1.20;;
42030;SDS011;27709;52.036;5.906;2022-07-10T07:50:57;5.18;;;1.15;;
42030;SDS011;27709;52.036;5.906;2022-07-10T07:53:23;6.78;;;1.05;;
42030;SDS011;27709;52.036;5.906;2022-07-10T07:55:48;7.03;;;1.10;;
42030;SDS011;27709;52.036;5.906;2022-07-10T07:58:14;5.05;;;1.48;;
42030;SDS011;27709;52.036;5.906;2022-07-10T08:00:39;7.65;;;1.30;;
42030;SDS011;27709;52.036;5.906;2022-07-10T08:03:05;3.70;;;1.35;;
42030;SDS011;27709;52.036;5.906;2022-07-10T08:05:30;4.18;;;1.17;;
42030;SDS011;27709;52.036;5.906;2022-07-10T08:07:59;4.60;;;1.40;;
42030;SDS011;27709;52.036;5.906;2022-07-10T08:12:55;7.65;;;1.40;;
42030;SDS011;27709;52.036;5.906;2022-07-10T08:15:21;5.53;;;1.25;;
42030;SDS011;27709;52.036;5.906;2022-07-10T08:17:48;3.58;;;1.23;;
42030;SDS011;27709;52.036;5.906;2022-07-10T08:20:15;5.35;;;1.15;;
42030;SDS011;27709;52.036;5.906;2022-07-10T08:22:41;5.57;;;1.25;;
42030;SDS011;27709;52.036;5.906;2022-07-10T08:25:07;4.63;;;1.20;;
42030;SDS011;27709;52.036;5.906;2022-07-10T08:27:34;7.43;;;1.45;;
42030;SDS011;27709;52.036;5.906;2022-07-10T08:30:00;6.90;;;1.58;;
42030;SDS011;27709;52.036;5.906;2022-07-10T08:32:26;3.75;;;1.00;;
42030;SDS011;27709;52.036;5.906;2022-07-10T08:34:52;6.18;;;1.13;;
42030;SDS011;27709;52.036;5.906;2022-07-10T08:37:18;3.40;;;1.00;;
42030;SDS011;27709;52.036;5.906;2022-07-10T08:39:44;6.32;;;1.20;;
42030;SDS011;27709;52.036;5.906;2022-07-10T08:42:10;5.13;;;1.00;;
42030;SDS011;27709;52.036;5.906;2022-07-10T08:44:36;5.30;;;1.30;;
42030;SDS011;27709;52.036;5.906;2022-07-10T08:47:02;5.28;;;1.25;;
42030;SDS011;27709;52.036;5.906;2022-07-10T08:49:30;3.78;;;1.10;;
42030;SDS011;27709;52.036;5.906;2022-07-10T08:52:06;4.55;;;1.10;;
42030;SDS011;27709;52.036;5.906;2022-07-10T08:54:37;6.13;;;1.40;;
42030;SDS011;27709;52.036;5.906;2022-07-10T08:57:04;4.38;;;1.00;;
42030;SDS011;27709;52.036;5.906;2022-07-10T08:59:30;5.13;;;0.95;;
42030;SDS011;27709;52.036;5.906;2022-07-10T09:01:56;8.25;;;1.10;;
42030;SDS011;27709;52.036;5.906;2022-07-10T09:04:22;5.78;;;1.30;;
42030;SDS011;27709;52.036;5.906;2022-07-10T09:06:50;4.88;;;1.00;;
42030;SDS011;27709;52.036;5.906;2022-07-10T09:09:17;5.63;;;1.13;;
42030;SDS011;27709;52.036;5.906;2022-07-10T09:11:43;4.30;;;1.30;;
42030;SDS011;27709;52.036;5.906;2022-07-10T09:14:15;5.25;;;1.02;;
42030;SDS011;27709;52.036;5.906;2022-07-10T09:16:42;3.17;;;0.88;;
42030;SDS011;27709;52.036;5.906;2022-07-10T09:19:19;4.82;;;0.80;;
42030;SDS011;27709;52.036;5.906;2022-07-10T09:21:47;5.70;;;0.85;;
42030;SDS011;27709;52.036;5.906;2022-07-10T09:24:15;2.90;;;0.80;;
42030;SDS011;27709;52.036;5.906;2022-07-10T09:27:08;2.65;;;0.70;;
42030;SDS011;27709;52.036;5.906;2022-07-10T09:29:51;3.85;;;0.90;;
42030;SDS011;27709;52.036;5.906;2022-07-10T09:32:21;5.55;;;0.88;;
42030;SDS011;27709;52.036;5.906;2022-07-10T09:34:47;5.47;;;1.00;;
42030;SDS011;27709;52.036;5.906;2022-07-10T09:37:28;4.30;;;0.90;;
42030;SDS011;27709;52.036;5.906;2022-07-10T09:39:57;2.05;;;0.70;;
42030;SDS011;27709;52.036;5.906;2022-07-10T09:42:24;4.40;;;0.90;;
42030;SDS011;27709;52.036;5.906;2022-07-10T09:44:50;5.45;;;0.80;;
42030;SDS011;27709;52.036;5.906;2022-07-10T09:47:22;3.15;;;0.88;;
42030;SDS011;27709;52.036;5.906;2022-07-10T09:49:48;4.30;;;0.80;;
42030;SDS011;27709;52.036;5.906;2022-07-10T09:52:13;2.88;;;0.70;;
42030;SDS011;27709;52.036;5.906;2022-07-10T09:54:40;4.28;;;0.80;;
42030;SDS011;27709;52.036;5.906;2022-07-10T09:57:06;3.35;;;0.80;;
42030;SDS011;27709;52.036;5.906;2022-07-10T09:59:35;2.85;;;0.88;;
42030;SDS011;27709;52.036;5.906;2022-07-10T10:02:03;4.97;;;0.80;;
42030;SDS011;27709;52.036;5.906;2022-07-10T10:04:30;3.30;;;0.63;;
42030;SDS011;27709;52.036;5.906;2022-07-10T10:06:59;4.85;;;0.82;;
42030;SDS011;27709;52.036;5.906;2022-07-10T10:09:33;2.65;;;0.60;;
42030;SDS011;27709;52.036;5.906;2022-07-10T10:12:11;2.97;;;0.70;;
42030;SDS011;27709;52.036;5.906;2022-07-10T10:14:41;2.65;;;0.70;;
42030;SDS011;27709;52.036;5.906;2022-07-10T10:17:08;2.13;;;0.60;;
42030;SDS011;27709;52.036;5.906;2022-07-10T10:19:35;2.17;;;0.60;;
42030;SDS011;27709;52.036;5.906;2022-07-10T10:22:21;2.83;;;0.70;;
42030;SDS011;27709;52.036;5.906;2022-07-10T10:24:48;4.60;;;0.73;;
42030;SDS011;27709;52.036;5.906;2022-07-10T10:27:15;3.60;;;0.70;;
42030;SDS011;27709;52.036;5.906;2022-07-10T10:29:41;3.58;;;0.70;;
42030;SDS011;27709;52.036;5.906;2022-07-10T10:32:07;5.20;;;0.80;;
42030;SDS011;27709;52.036;5.906;2022-07-10T10:34:43;3.95;;;0.70;;
42030;SDS011;27709;52.036;5.906;2022-07-10T10:40:10;3.30;;;0.70;;
42030;SDS011;27709;52.036;5.906;2022-07-10T10:42:56;1.58;;;0.50;;
42030;SDS011;27709;52.036;5.906;2022-07-10T10:47:56;3.20;;;0.68;;
42030;SDS011;27709;52.036;5.906;2022-07-10T10:50:59;3.58;;;0.60;;
42030;SDS011;27709;52.036;5.906;2022-07-10T10:53:22;2.15;;;0.50;;
42030;SDS011;27709;52.036;5.906;2022-07-10T10:58:36;1.70;;;0.50;;
42030;SDS011;27709;52.036;5.906;2022-07-10T11:01:04;3.50;;;0.60;;
42030;SDS011;27709;52.036;5.906;2022-07-10T11:09:24;1.17;;;0.50;;
42030;SDS011;27709;52.036;5.906;2022-07-10T11:12:04;1.35;;;0.50;;
42030;SDS011;27709;52.036;5.906;2022-07-10T11:14:35;1.98;;;0.57;;
42030;SDS011;27709;52.036;5.906;2022-07-10T11:17:02;2.70;;;0.60;;
42030;SDS011;27709;52.036;5.906;2022-07-10T11:19:29;2.78;;;0.57;;
42030;SDS011;27709;52.036;5.906;2022-07-10T11:21:58;1.77;;;0.68;;
42030;SDS011;27709;52.036;5.906;2022-07-10T11:30:14;2.22;;;0.60;;
42030;SDS011;27709;52.036;5.906;2022-07-10T11:32:40;2.33;;;0.60;;
42030;SDS011;27709;52.036;5.906;2022-07-10T11:35:11;2.38;;;0.60;;
42030;SDS011;27709;52.036;5.906;2022-07-10T11:37:53;2.58;;;0.60;;
42030;SDS011;27709;52.036;5.906;2022-07-10T11:40:19;2.75;;;0.50;;
42030;SDS011;27709;52.036;5.906;2022-07-10T11:45:28;4.38;;;0.70;;
42030;SDS011;27709;52.036;5.906;2022-07-10T11:47:55;2.60;;;0.80;;
42030;SDS011;27709;52.036;5.906;2022-07-10T11:50:21;1.35;;;0.60;;
42030;SDS011;27709;52.036;5.906;2022-07-10T11:52:47;1.75;;;0.60;;
42030;SDS011;27709;52.036;5.906;2022-07-10T11:55:17;3.22;;;0.77;;
42030;SDS011;27709;52.036;5.906;2022-07-10T11:57:44;2.85;;;0.57;;
42030;SDS011;27709;52.036;5.906;2022-07-10T12:03:19;3.15;;;0.70;;
42030;SDS011;27709;52.036;5.906;2022-07-10T12:05:46;2.67;;;0.60;;
42030;SDS011;27709;52.036;5.906;2022-07-10T12:08:12;3.63;;;0.52;;
42030;SDS011;27709;52.036;5.906;2022-07-10T12:10:38;4.45;;;0.68;;
42030;SDS011;27709;52.036;5.906;2022-07-10T12:13:09;2.80;;;0.60;;
42030;SDS011;27709;52.036;5.906;2022-07-10T12:15:45;2.15;;;0.50;;
42030;SDS011;27709;52.036;5.906;2022-07-10T12:18:21;1.35;;;0.50;;
42030;SDS011;27709;52.036;5.906;2022-07-10T12:20:48;3.15;;;0.82;;
42030;SDS011;27709;52.036;5.906;2022-07-10T12:23:15;1.50;;;0.50;;
42030;SDS011;27709;52.036;5.906;2022-07-10T12:25:45;1.90;;;0.50;;
42030;SDS011;27709;52.036;5.906;2022-07-10T12:28:15;2.90;;;0.75;;
42030;SDS011;27709;52.036;5.906;2022-07-10T12:30:43;2.15;;;0.70;;
42030;SDS011;27709;52.036;5.906;2022-07-10T12:33:14;2.42;;;0.57;;
42030;SDS011;27709;52.036;5.906;2022-07-10T12:38:16;2.35;;;0.60;;
42030;SDS011;27709;52.036;5.906;2022-07-10T12:40:43;2.47;;;0.43;;
42030;SDS011;27709;52.036;5.906;2022-07-10T12:43:08;2.30;;;0.60;;
42030;SDS011;27709;52.036;5.906;2022-07-10T12:45:36;1.90;;;0.43;;
42030;SDS011;27709;52.036;5.906;2022-07-10T12:48:03;1.67;;;0.43;;
42030;SDS011;27709;52.036;5.906;2022-07-10T12:50:31;1.95;;;0.40;;
42030;SDS011;27709;52.036;5.906;2022-07-10T12:53:07;2.38;;;0.50;;
42030;SDS011;27709;52.036;5.906;2022-07-10T12:55:37;2.78;;;0.50;;
42030;SDS011;27709;52.036;5.906;2022-07-10T12:58:04;1.50;;;0.50;;
42030;SDS011;27709;52.036;5.906;2022-07-10T13:00:35;4.00;;;0.52;;
42030;SDS011;27709;52.036;5.906;2022-07-10T13:03:02;2.72;;;0.47;;
42030;SDS011;27709;52.036;5.906;2022-07-10T13:05:33;2.08;;;0.43;;
42030;SDS011;27709;52.036;5.906;2022-07-10T13:10:33;2.22;;;0.50;;
42030;SDS011;27709;52.036;5.906;2022-07-10T13:13:01;2.95;;;0.50;;
42030;SDS011;27709;52.036;5.906;2022-07-10T13:15:27;3.65;;;0.60;;
42030;SDS011;27709;52.036;5.906;2022-07-10T13:17:54;2.58;;;0.50;;
42030;SDS011;27709;52.036;5.906;2022-07-10T13:20:20;2.50;;;0.57;;
42030;SDS011;27709;52.036;5.906;2022-07-10T13:22:45;1.98;;;0.60;;
42030;SDS011;27709;52.036;5.906;2022-07-10T13:25:11;2.10;;;0.40;;
42030;SDS011;27709;52.036;5.906;2022-07-10T13:27:36;3.35;;;0.50;;
42030;SDS011;27709;52.036;5.906;2022-07-10T13:30:03;1.58;;;0.40;;
42030;SDS011;27709;52.036;5.906;2022-07-10T13:32:29;1.63;;;0.40;;
42030;SDS011;27709;52.036;5.906;2022-07-10T13:34:54;1.38;;;0.40;;
42030;SDS011;27709;52.036;5.906;2022-07-10T13:37:20;1.85;;;0.50;;
42030;SDS011;27709;52.036;5.906;2022-07-10T13:39:45;2.15;;;0.50;;
42030;SDS011;27709;52.036;5.906;2022-07-10T13:42:11;2.28;;;0.50;;
42030;SDS011;27709;52.036;5.906;2022-07-10T13:44:36;2.20;;;0.60;;
42030;SDS011;27709;52.036;5.906;2022-07-10T13:47:02;1.65;;;0.55;;
42030;SDS011;27709;52.036;5.906;2022-07-10T13:49:28;2.75;;;0.70;;
42030;SDS011;27709;52.036;5.906;2022-07-10T13:51:55;1.67;;;0.40;;
42030;SDS011;27709;52.036;5.906;2022-07-10T13:54:21;1.80;;;0.50;;
42030;SDS011;27709;52.036;5.906;2022-07-10T13:56:46;1.58;;;0.43;;
42030;SDS011;27709;52.036;5.906;2022-07-10T13:59:12;2.05;;;0.50;;
42030;SDS011;27709;52.036;5.906;2022-07-10T14:01:38;1.95;;;0.50;;
42030;SDS011;27709;52.036;5.906;2022-07-10T14:04:03;1.63;;;0.57;;
42030;SDS011;27709;52.036;5.906;2022-07-10T14:06:29;1.92;;;0.60;;
42030;SDS011;27709;52.036;5.906;2022-07-10T14:08:55;2.83;;;0.47;;
42030;SDS011;27709;52.036;5.906;2022-07-10T14:11:21;2.17;;;0.50;;
42030;SDS011;27709;52.036;5.906;2022-07-10T14:13:46;1.58;;;0.32;;
42030;SDS011;27709;52.036;5.906;2022-07-10T14:16:12;1.80;;;0.50;;
42030;SDS011;27709;52.036;5.906;2022-07-10T14:18:38;1.38;;;0.40;;
42030;SDS011;27709;52.036;5.906;2022-07-10T14:21:05;2.42;;;0.40;;
42030;SDS011;27709;52.036;5.906;2022-07-10T14:23:33;1.77;;;0.60;;
42030;SDS011;27709;52.036;5.906;2022-07-10T14:26:00;2.78;;;0.55;;
42030;SDS011;27709;52.036;5.906;2022-07-10T14:28:27;2.75;;;0.63;;
42030;SDS011;27709;52.036;5.906;2022-07-10T14:30:52;3.83;;;0.70;;
42030;SDS011;27709;52.036;5.906;2022-07-10T14:33:19;1.92;;;0.50;;
42030;SDS011;27709;52.036;5.906;2022-07-10T14:35:45;3.33;;;0.55;;
42030;SDS011;27709;52.036;5.906;2022-07-10T14:38:11;2.00;;;0.50;;
42030;SDS011;27709;52.036;5.906;2022-07-10T14:40:37;1.65;;;0.60;;
42030;SDS011;27709;52.036;5.906;2022-07-10T14:43:02;1.88;;;0.50;;
42030;SDS011;27709;52.036;5.906;2022-07-10T14:45:28;2.95;;;0.50;;
42030;SDS011;27709;52.036;5.906;2022-07-10T14:47:53;2.67;;;0.60;;
42030;SDS011;27709;52.036;5.906;2022-07-10T14:50:20;2.95;;;0.50;;
42030;SDS011;27709;52.036;5.906;2022-07-10T14:52:46;2.50;;;0.60;;
42030;SDS011;27709;52.036;5.906;2022-07-10T14:55:11;3.55;;;0.60;;
42030;SDS011;27709;52.036;5.906;2022-07-10T14:57:37;2.17;;;0.52;;
42030;SDS011;27709;52.036;5.906;2022-07-10T15:00:03;1.20;;;0.30;;
42030;SDS011;27709;52.036;5.906;2022-07-10T15:02:29;3.33;;;0.60;;
42030;SDS011;27709;52.036;5.906;2022-07-10T15:04:55;1.30;;;0.50;;
42030;SDS011;27709;52.036;5.906;2022-07-10T15:07:20;1.73;;;0.50;;
42030;SDS011;27709;52.036;5.906;2022-07-10T15:09:46;2.22;;;0.45;;
42030;SDS011;27709;52.036;5.906;2022-07-10T15:12:12;3.92;;;0.60;;
42030;SDS011;27709;52.036;5.906;2022-07-10T15:14:40;2.08;;;0.63;;
42030;SDS011;27709;52.036;5.906;2022-07-10T15:17:06;2.15;;;0.57;;
42030;SDS011;27709;52.036;5.906;2022-07-10T15:19:32;2.55;;;0.52;;
42030;SDS011;27709;52.036;5.906;2022-07-10T15:21:57;1.52;;;0.60;;
42030;SDS011;27709;52.036;5.906;2022-07-10T15:24:23;3.47;;;0.77;;
42030;SDS011;27709;52.036;5.906;2022-07-10T15:26:49;1.65;;;0.40;;
42030;SDS011;27709;52.036;5.906;2022-07-10T15:29:16;2.45;;;0.60;;
42030;SDS011;27709;52.036;5.906;2022-07-10T15:31:42;3.08;;;0.50;;
42030;SDS011;27709;52.036;5.906;2022-07-10T15:34:08;3.55;;;0.63;;
42030;SDS011;27709;52.036;5.906;2022-07-10T15:36:37;2.30;;;0.50;;
42030;SDS011;27709;52.036;5.906;2022-07-10T15:39:02;4.25;;;0.60;;
42030;SDS011;27709;52.036;5.906;2022-07-10T15:41:28;2.38;;;0.60;;
42030;SDS011;27709;52.036;5.906;2022-07-10T15:43:54;3.03;;;0.63;;